Terminal Aerodrome Forecast
Issued by NWS Jackson, MS

Home | Current Version | Previous Version | Text Only | Print | Product List | Glossary On
Versions: 1 2 3 4 5 6 7 8 9 10 11 12 13 14 15 16
000
FTUS44 KJAN 280544
TAFGWO
TAF
KGWO 280544Z 2806/2906 20008KT P6SM BKN010 OVC020
     FM281100 22010KT 4SM BR VCTS BKN010CB OVC040
     FM281800 23011KT P6SM VCTS BKN025CB OVC040
     FM290000 19004KT P6SM BKN150=

USA.gov is the U.S. government's official web portal to all federal, state and local government web resources and services.